Aracu, Brazil
Current Conditions -  °F | °C
As of 4:00 AM on Saturday 25 Oct 2014 (Local Time) from SBGO Reporting Station
Overcast Overcast  
Wind Chill: 70°   Ceiling: 8000
Heat Index: 70°   Visibility: 6mi
Dew Point: 64°   Wind: 3mph
Humidity: 83%   Direction: 250°WSW
Pressure: 29.94"   Gusts: NA
Location:  16.36°S, 49.68°W
Report Text: SBGO 250600Z 25003KT 9999 FEW030 OVC080 21/18 Q1014
Loading
Personal Weather Stations






























Interactive Weather Map
Tropical Storm Tracking
New forecast layout! Learn more

10-Day Weather Forecast

Advertisements
Track Severe Weather on mobile